createdAt,value
2022-10-30T00:00:41.421Z,18.00
2022-10-30T00:03:13.193Z,17.90
2022-10-30T00:05:44.153Z,17.90
2022-10-30T00:08:13.143Z,17.90
2022-10-30T00:10:40.355Z,17.70
2022-10-30T00:13:07.931Z,17.70
2022-10-30T00:15:34.871Z,17.70
2022-10-30T00:18:02.600Z,17.60
2022-10-30T00:20:29.590Z,17.50
2022-10-30T00:22:56.655Z,17.60
2022-10-30T00:25:23.972Z,17.60
2022-10-30T00:27:50.926Z,17.50
2022-10-30T00:30:18.815Z,17.60
2022-10-30T00:32:45.556Z,17.70
2022-10-30T00:35:12.631Z,17.70
2022-10-30T00:37:39.683Z,17.60
2022-10-30T00:40:07.464Z,17.60
2022-10-30T00:42:34.488Z,17.50
2022-10-30T00:45:01.193Z,17.50
2022-10-30T00:47:37.541Z,17.40
2022-10-30T00:50:16.206Z,17.40
2022-10-30T00:53:07.094Z,17.40
2022-10-30T00:55:48.546Z,17.30
2022-10-30T00:58:17.761Z,17.10
2022-10-30T01:00:48.896Z,17.20
2022-10-30T01:03:16.512Z,17.40
2022-10-30T01:05:45.709Z,17.30
2022-10-30T01:08:12.572Z,17.40
2022-10-30T01:10:39.734Z,17.50
2022-10-30T01:13:06.944Z,17.20
2022-10-30T01:15:38.004Z,17.30
2022-10-30T01:18:25.174Z,17.20
2022-10-30T01:21:27.498Z,17.20
2022-10-30T01:24:19.670Z,17.20
2022-10-30T01:27:07.843Z,17.20
2022-10-30T01:29:48.537Z,17.00
2022-10-30T01:32:18.642Z,17.00
2022-10-30T01:35:17.881Z,16.90
2022-10-30T01:37:54.182Z,16.90
2022-10-30T01:40:21.408Z,16.90
2022-10-30T01:42:56.658Z,16.90
2022-10-30T01:46:17.080Z,16.90
2022-10-30T01:49:11.482Z,17.00
2022-10-30T01:51:50.202Z,17.00
2022-10-30T01:54:35.236Z,17.00
2022-10-30T01:57:36.760Z,16.90
2022-10-30T02:00:07.764Z,16.90
2022-10-30T02:02:34.844Z,16.90
2022-10-30T02:05:06.340Z,16.70
2022-10-30T02:07:33.770Z,16.70
2022-10-30T02:10:01.814Z,16.60
2022-10-30T02:12:28.949Z,16.70
2022-10-30T02:14:59.995Z,17.00
2022-10-30T02:17:28.209Z,17.00
2022-10-30T02:19:55.117Z,17.00
2022-10-30T02:22:22.278Z,16.90
2022-10-30T02:24:49.078Z,16.90
2022-10-30T02:27:15.737Z,16.90
2022-10-30T02:29:42.802Z,16.80
2022-10-30T02:32:09.472Z,16.70
2022-10-30T02:34:36.882Z,16.70
2022-10-30T02:37:03.959Z,16.60
2022-10-30T02:39:31.825Z,16.40
2022-10-30T02:42:00.291Z,16.30
2022-10-30T02:44:27.102Z,16.50
2022-10-30T02:46:53.832Z,16.60
2022-10-30T02:49:21.655Z,16.60
2022-10-30T02:51:48.279Z,16.70
2022-10-30T02:54:15.326Z,16.80
2022-10-30T02:56:42.472Z,16.80
2022-10-30T02:59:09.519Z,16.50
2022-10-30T03:01:36.527Z,16.40
2022-10-30T03:04:03.625Z,16.30
2022-10-30T03:06:30.590Z,16.40
2022-10-30T03:08:57.592Z,16.60
2022-10-30T03:11:24.272Z,16.60
2022-10-30T03:13:51.476Z,16.60
2022-10-30T03:16:21.226Z,16.60
2022-10-30T03:18:48.648Z,16.50
2022-10-30T03:21:18.825Z,16.50
2022-10-30T03:23:46.335Z,16.50
2022-10-30T03:26:13.575Z,16.50
2022-10-30T03:28:40.387Z,16.50
2022-10-30T03:31:13.065Z,16.50
2022-10-30T03:33:40.556Z,16.40
2022-10-30T03:36:09.254Z,16.30
2022-10-30T03:38:36.500Z,16.20
2022-10-30T03:41:03.684Z,16.30
2022-10-30T03:43:30.668Z,16.40
2022-10-30T03:45:57.818Z,16.40
2022-10-30T03:48:27.345Z,16.20
2022-10-30T03:50:55.376Z,16.30
2022-10-30T03:53:23.943Z,16.30
2022-10-30T03:55:51.067Z,16.20
2022-10-30T03:58:17.858Z,16.10
2022-10-30T04:00:44.445Z,16.00
2022-10-30T04:03:11.753Z,16.00
2022-10-30T04:05:38.952Z,16.00
2022-10-30T04:08:10.961Z,16.00
2022-10-30T04:10:38.045Z,16.00
2022-10-30T04:13:07.316Z,16.10
2022-10-30T04:15:34.261Z,16.20
2022-10-30T04:18:01.606Z,16.30
2022-10-30T04:20:29.651Z,16.40
2022-10-30T04:22:58.120Z,16.30
2022-10-30T04:25:25.787Z,16.40
2022-10-30T04:27:53.153Z,16.30
2022-10-30T04:30:34.054Z,16.30
2022-10-30T04:33:02.928Z,16.30
2022-10-30T04:35:32.791Z,16.10
2022-10-30T04:38:04.846Z,16.10
2022-10-30T04:40:35.002Z,16.10
2022-10-30T04:43:03.091Z,16.00
2022-10-30T04:45:30.122Z,15.90
2022-10-30T04:48:05.886Z,15.80
2022-10-30T04:50:33.886Z,15.60
2022-10-30T04:53:02.715Z,15.40
2022-10-30T04:55:30.071Z,15.40
2022-10-30T04:58:02.897Z,15.30
2022-10-30T05:00:30.631Z,15.30
2022-10-30T05:03:01.579Z,15.30
2022-10-30T05:05:32.027Z,15.40
2022-10-30T05:07:59.651Z,15.30
2022-10-30T05:10:26.996Z,15.10
2022-10-30T05:12:54.388Z,15.10
2022-10-30T05:15:21.850Z,15.30
2022-10-30T05:17:53.592Z,15.50
2022-10-30T05:20:20.742Z,15.40
2022-10-30T05:22:58.097Z,15.40
2022-10-30T05:25:25.674Z,15.10
2022-10-30T05:28:01.848Z,14.90
2022-10-30T05:30:32.300Z,14.90
2022-10-30T05:33:06.635Z,14.90
2022-10-30T05:35:34.653Z,14.90
2022-10-30T05:38:03.464Z,15.00
2022-10-30T05:40:30.415Z,15.00
2022-10-30T05:42:57.501Z,15.00
2022-10-30T05:45:24.559Z,15.10
2022-10-30T05:48:02.909Z,15.30
2022-10-30T05:50:31.732Z,15.40
2022-10-30T05:53:02.027Z,15.60
2022-10-30T05:55:29.160Z,15.70
2022-10-30T05:58:00.934Z,15.70
2022-10-30T06:00:29.853Z,15.50
2022-10-30T06:03:05.412Z,15.50
2022-10-30T06:05:34.985Z,15.60
2022-10-30T06:08:02.848Z,15.80
2022-10-30T06:10:30.250Z,15.80
2022-10-30T06:13:00.057Z,15.80
2022-10-30T06:15:27.979Z,15.80
2022-10-30T06:17:55.284Z,15.50
2022-10-30T06:20:24.588Z,15.30
2022-10-30T06:22:59.522Z,15.30
2022-10-30T06:25:27.437Z,15.10
2022-10-30T06:27:54.380Z,15.10
2022-10-30T06:30:21.663Z,15.10
2022-10-30T06:32:48.880Z,15.30
2022-10-30T06:35:16.469Z,15.40
2022-10-30T06:37:47.774Z,15.40
2022-10-30T06:40:15.531Z,15.50
2022-10-30T06:42:46.570Z,15.60
2022-10-30T06:45:15.039Z,15.40
2022-10-30T06:47:42.567Z,15.30
2022-10-30T06:50:12.268Z,15.30
2022-10-30T06:52:39.194Z,15.40
2022-10-30T06:55:07.161Z,15.60
2022-10-30T06:57:34.118Z,15.70
2022-10-30T07:00:00.814Z,15.80
2022-10-30T07:02:27.969Z,15.70
2022-10-30T07:04:54.821Z,15.80
2022-10-30T07:07:21.820Z,15.80
2022-10-30T07:09:48.489Z,15.90
2022-10-30T07:12:15.874Z,16.00
2022-10-30T07:14:42.558Z,16.20
2022-10-30T07:17:10.029Z,16.20
2022-10-30T07:19:36.621Z,16.10
2022-10-30T07:22:03.419Z,16.00
2022-10-30T07:24:30.377Z,16.00
2022-10-30T07:26:57.389Z,15.90
2022-10-30T07:29:24.030Z,15.90
2022-10-30T07:32:02.298Z,16.10
2022-10-30T07:34:29.776Z,16.10
2022-10-30T07:36:56.700Z,16.30
2022-10-30T07:39:23.780Z,16.60
2022-10-30T07:41:50.822Z,16.80
2022-10-30T07:44:17.933Z,16.80
2022-10-30T07:46:44.843Z,16.80
2022-10-30T07:49:11.937Z,16.90
2022-10-30T07:51:38.988Z,17.10
2022-10-30T07:54:06.032Z,17.20
2022-10-30T07:56:33.046Z,17.40
2022-10-30T07:59:00.142Z,17.40
2022-10-30T08:01:27.215Z,17.50
2022-10-30T08:03:54.184Z,17.50
2022-10-30T08:06:24.685Z,17.50
2022-10-30T08:08:54.041Z,17.50
2022-10-30T08:11:21.140Z,17.50
2022-10-30T08:13:48.125Z,17.50
2022-10-30T08:16:17.189Z,17.70
2022-10-30T08:18:43.995Z,17.50
2022-10-30T08:21:10.961Z,17.70
2022-10-30T08:23:38.014Z,17.70
2022-10-30T08:26:05.443Z,17.70
2022-10-30T08:28:33.024Z,17.70
2022-10-30T08:31:02.447Z,17.60
2022-10-30T08:33:29.724Z,17.30
2022-10-30T08:35:58.590Z,17.30
2022-10-30T08:38:26.939Z,17.20
2022-10-30T08:40:53.956Z,17.20
2022-10-30T08:43:20.969Z,17.00
2022-10-30T08:45:48.097Z,17.00
2022-10-30T08:48:16.584Z,16.90
2022-10-30T08:50:43.610Z,17.00
2022-10-30T08:53:12.227Z,17.10
2022-10-30T08:55:39.283Z,17.00
2022-10-30T08:58:06.071Z,17.20
2022-10-30T09:00:32.960Z,17.40
2022-10-30T09:03:00.163Z,17.80
2022-10-30T09:05:27.454Z,18.00
2022-10-30T09:08:02.173Z,18.40
2022-10-30T09:10:29.806Z,18.70
2022-10-30T09:12:57.948Z,18.90
2022-10-30T09:15:26.344Z,18.80
2022-10-30T09:17:58.701Z,18.60
2022-10-30T09:20:26.303Z,18.70
2022-10-30T09:22:54.482Z,18.70
2022-10-30T09:25:21.731Z,18.90
2022-10-30T09:27:49.888Z,19.30
2022-10-30T09:30:16.618Z,19.40
2022-10-30T09:32:43.685Z,19.30
2022-10-30T09:35:10.684Z,19.50
2022-10-30T09:37:38.653Z,20.20
2022-10-30T09:40:07.474Z,21.00
2022-10-30T09:42:45.631Z,21.20
2022-10-30T09:45:52.220Z,22.10
2022-10-30T09:48:41.571Z,23.00
2022-10-30T09:51:26.573Z,23.60
2022-10-30T09:54:23.527Z,24.10
2022-10-30T09:57:29.062Z,24.00
2022-10-30T10:00:23.207Z,23.40
2022-10-30T10:03:03.324Z,23.40
2022-10-30T10:05:43.118Z,24.70
2022-10-30T10:08:37.675Z,26.00
2022-10-30T10:11:13.433Z,26.60
2022-10-30T10:13:48.376Z,26.80
2022-10-30T10:16:20.569Z,26.90
2022-10-30T10:18:52.450Z,27.30
2022-10-30T10:21:27.897Z,27.10
2022-10-30T10:24:03.464Z,27.20
2022-10-30T10:26:42.214Z,26.40
2022-10-30T10:29:33.832Z,25.40
2022-10-30T10:32:08.140Z,24.90
2022-10-30T10:35:11.185Z,24.50
2022-10-30T10:37:48.775Z,24.10
2022-10-30T10:40:26.328Z,23.80
2022-10-30T10:43:20.754Z,23.30
2022-10-30T10:46:09.804Z,22.90
2022-10-30T10:49:04.811Z,22.30
2022-10-30T10:51:39.075Z,22.40
2022-10-30T10:54:21.749Z,22.60
2022-10-30T10:56:50.976Z,23.20
2022-10-30T10:59:22.754Z,24.10
2022-10-30T11:01:55.823Z,24.00
2022-10-30T11:04:47.776Z,23.90
2022-10-30T11:07:22.867Z,24.40
2022-10-30T11:09:57.479Z,25.10
2022-10-30T11:12:37.268Z,24.70
2022-10-30T11:15:18.521Z,24.10
2022-10-30T11:18:08.079Z,24.00
2022-10-30T11:21:04.652Z,24.00
2022-10-30T11:23:44.961Z,23.50
2022-10-30T11:26:18.237Z,23.70
2022-10-30T11:29:03.947Z,22.90
2022-10-30T11:31:37.797Z,22.70
2022-10-30T11:34:19.862Z,22.70
2022-10-30T11:36:48.944Z,22.80
2022-10-30T11:39:26.091Z,22.50
2022-10-30T11:42:04.894Z,22.30
2022-10-30T11:44:38.266Z,22.40
2022-10-30T11:47:07.220Z,22.20
2022-10-30T11:49:36.787Z,22.10
2022-10-30T11:52:05.112Z,21.90
2022-10-30T11:54:37.594Z,21.60
2022-10-30T11:57:05.044Z,21.80
2022-10-30T11:59:31.771Z,22.30
2022-10-30T12:02:01.720Z,22.80
2022-10-30T12:04:31.924Z,23.60
2022-10-30T12:07:14.163Z,24.40
2022-10-30T12:09:45.957Z,25.10
2022-10-30T12:12:24.118Z,25.60
2022-10-30T12:14:52.511Z,25.60
2022-10-30T12:17:21.694Z,25.30
2022-10-30T12:19:51.259Z,25.70
2022-10-30T12:22:35.162Z,26.00
2022-10-30T12:25:24.027Z,26.10
2022-10-30T12:27:57.992Z,25.80
2022-10-30T12:30:25.968Z,27.60
2022-10-30T12:32:55.010Z,28.00
2022-10-30T12:35:42.988Z,27.00
2022-10-30T12:38:34.334Z,26.50
2022-10-30T12:41:20.083Z,26.80
2022-10-30T12:43:58.590Z,27.00
2022-10-30T12:46:52.019Z,27.00
2022-10-30T12:49:41.288Z,26.10
2022-10-30T12:52:24.071Z,25.70
2022-10-30T12:55:22.107Z,26.40
2022-10-30T12:58:01.872Z,26.50
2022-10-30T13:00:34.445Z,27.30
2022-10-30T13:03:13.514Z,28.00
2022-10-30T13:05:43.784Z,28.90
2022-10-30T13:08:23.100Z,28.00
2022-10-30T13:11:12.251Z,27.30
2022-10-30T13:13:59.355Z,27.00
2022-10-30T13:16:31.019Z,27.60
2022-10-30T13:19:01.021Z,28.40
2022-10-30T13:22:15.131Z,28.60
2022-10-30T13:25:08.126Z,27.70
2022-10-30T13:28:04.893Z,26.80
2022-10-30T13:30:37.775Z,25.70
2022-10-30T13:33:10.632Z,26.50
2022-10-30T13:35:59.453Z,26.70
2022-10-30T13:38:59.735Z,26.50
2022-10-30T13:41:53.752Z,26.50
2022-10-30T13:44:26.524Z,25.90
2022-10-30T13:47:13.331Z,25.30
2022-10-30T13:50:18.469Z,24.10
2022-10-30T13:52:53.496Z,22.90
2022-10-30T13:55:27.397Z,22.70
2022-10-30T13:58:23.204Z,23.20
2022-10-30T14:00:56.808Z,23.40
2022-10-30T14:03:51.499Z,23.30
2022-10-30T14:06:26.383Z,23.10
2022-10-30T14:08:53.294Z,23.10
2022-10-30T14:11:20.303Z,23.20
2022-10-30T14:13:51.936Z,23.10
2022-10-30T14:16:41.770Z,22.70
2022-10-30T14:19:17.160Z,22.30
2022-10-30T14:21:58.242Z,22.10
2022-10-30T14:24:31.012Z,21.90
2022-10-30T14:27:04.096Z,21.90
2022-10-30T14:29:34.228Z,21.80
2022-10-30T14:32:21.404Z,21.70
2022-10-30T14:34:51.475Z,21.30
2022-10-30T14:37:38.467Z,21.10
2022-10-30T14:40:32.022Z,21.00
2022-10-30T14:43:03.664Z,20.90
2022-10-30T14:45:58.458Z,20.90
2022-10-30T14:48:34.296Z,20.80
2022-10-30T14:51:05.738Z,20.70
2022-10-30T14:53:51.479Z,20.60
2022-10-30T14:56:31.861Z,20.70
2022-10-30T14:59:14.976Z,20.60
2022-10-30T15:01:55.138Z,20.50
2022-10-30T15:04:46.863Z,20.50
2022-10-30T15:07:52.576Z,20.50
2022-10-30T15:10:26.199Z,20.50
2022-10-30T15:13:14.665Z,20.40
2022-10-30T15:15:43.073Z,20.40
2022-10-30T15:18:17.444Z,20.40
2022-10-30T15:20:52.069Z,20.50
2022-10-30T15:23:29.406Z,20.50
2022-10-30T15:26:02.540Z,20.30
2022-10-30T15:28:35.488Z,20.20
2022-10-30T15:31:23.806Z,20.20
2022-10-30T15:33:51.611Z,20.20
2022-10-30T15:36:19.536Z,20.00
2022-10-30T15:39:03.016Z,19.90
2022-10-30T15:41:30.597Z,19.80
2022-10-30T15:43:58.974Z,19.80
2022-10-30T15:46:26.577Z,19.80
2022-10-30T15:48:53.711Z,19.70
2022-10-30T15:51:23.124Z,19.60
2022-10-30T15:53:57.100Z,19.50
2022-10-30T15:57:17.777Z,19.60
2022-10-30T15:59:35.116Z,19.30
2022-10-30T16:02:01.933Z,19.20
2022-10-30T16:04:35.769Z,19.20
2022-10-30T16:07:16.431Z,19.10
2022-10-30T16:09:53.774Z,19.10
2022-10-30T16:12:23.820Z,19.10
2022-10-30T16:14:50.676Z,18.70
2022-10-30T16:17:18.898Z,18.40
2022-10-30T16:19:49.888Z,18.20
2022-10-30T16:22:26.154Z,18.20
2022-10-30T16:24:54.590Z,18.30
2022-10-30T16:27:23.607Z,18.20
2022-10-30T16:29:59.113Z,18.20
2022-10-30T16:32:30.825Z,18.10
2022-10-30T16:35:00.152Z,18.00
2022-10-30T16:37:37.679Z,18.00
2022-10-30T16:40:11.053Z,18.00
2022-10-30T16:42:38.231Z,18.10
2022-10-30T16:45:10.848Z,18.20
2022-10-30T16:47:39.572Z,18.00
2022-10-30T16:50:10.075Z,18.00
2022-10-30T16:52:36.826Z,18.00
2022-10-30T16:55:12.812Z,17.90
2022-10-30T16:57:45.415Z,17.80
2022-10-30T17:00:27.011Z,17.70
2022-10-30T17:02:56.311Z,17.60
2022-10-30T17:05:33.746Z,17.60
2022-10-30T17:08:20.631Z,17.60
2022-10-30T17:10:59.680Z,17.50
2022-10-30T17:13:37.995Z,17.50
2022-10-30T17:16:25.715Z,17.60
2022-10-30T17:18:54.206Z,17.60
2022-10-30T17:21:25.078Z,17.60
2022-10-30T17:23:58.651Z,17.50
2022-10-30T17:26:27.673Z,17.50
2022-10-30T17:28:55.022Z,17.50
2022-10-30T17:31:38.259Z,17.40
2022-10-30T17:34:15.533Z,17.20
2022-10-30T17:36:42.442Z,17.10
2022-10-30T17:39:10.273Z,16.90
2022-10-30T17:41:37.338Z,16.90
2022-10-30T17:44:05.316Z,16.90
2022-10-30T17:46:32.088Z,16.80
2022-10-30T17:48:59.450Z,16.90
2022-10-30T17:51:26.830Z,16.90
2022-10-30T17:53:53.564Z,16.80
2022-10-30T17:56:29.981Z,16.70
2022-10-30T17:58:56.665Z,16.80
2022-10-30T18:01:26.192Z,16.80
2022-10-30T18:03:55.161Z,16.80
2022-10-30T18:06:24.113Z,17.00
2022-10-30T18:08:53.230Z,17.00
2022-10-30T18:11:22.576Z,17.00
2022-10-30T18:13:50.541Z,16.90
2022-10-30T18:16:18.867Z,16.90
2022-10-30T18:18:45.675Z,16.90
2022-10-30T18:21:19.171Z,16.90
2022-10-30T18:23:52.238Z,16.80
2022-10-30T18:26:26.004Z,16.90
2022-10-30T18:28:53.659Z,16.70
2022-10-30T18:31:22.585Z,16.80
2022-10-30T18:33:49.640Z,16.80
2022-10-30T18:36:18.873Z,16.70
2022-10-30T18:38:46.081Z,16.60
2022-10-30T18:41:37.523Z,16.80
2022-10-30T18:44:06.467Z,16.70
2022-10-30T18:46:34.408Z,16.60
2022-10-30T18:49:01.318Z,16.60
2022-10-30T18:51:28.982Z,16.60
2022-10-30T18:53:56.918Z,16.50
2022-10-30T18:56:28.711Z,16.30
2022-10-30T18:59:01.556Z,16.30
2022-10-30T19:01:31.403Z,16.40
2022-10-30T19:04:01.062Z,16.60
2022-10-30T19:06:28.493Z,16.60
2022-10-30T19:08:55.355Z,16.50
2022-10-30T19:11:24.879Z,16.40
2022-10-30T19:13:53.628Z,16.30
2022-10-30T19:16:21.122Z,16.20
2022-10-30T19:18:48.421Z,16.20
2022-10-30T19:21:17.659Z,15.90
2022-10-30T19:23:44.399Z,16.10
2022-10-30T19:26:13.106Z,16.10
2022-10-30T19:28:40.779Z,16.00
2022-10-30T19:31:08.292Z,16.00
2022-10-30T19:33:34.952Z,15.90
2022-10-30T19:36:07.254Z,15.80
2022-10-30T19:38:34.123Z,15.90
2022-10-30T19:41:01.114Z,15.80
2022-10-30T19:43:27.818Z,15.80
2022-10-30T19:45:56.797Z,15.90
2022-10-30T19:48:47.803Z,16.10
2022-10-30T19:51:11.561Z,16.00
2022-10-30T19:53:39.042Z,16.00
2022-10-30T19:56:06.200Z,16.00
2022-10-30T19:58:32.944Z,16.00
2022-10-30T20:00:59.688Z,16.20
2022-10-30T20:03:26.449Z,16.40
2022-10-30T20:05:55.604Z,16.40
2022-10-30T20:08:25.593Z,16.40
2022-10-30T20:10:54.414Z,16.30
2022-10-30T20:13:23.296Z,16.20
2022-10-30T20:15:50.789Z,16.20
2022-10-30T20:18:20.219Z,16.20
2022-10-30T20:20:49.931Z,16.10
2022-10-30T20:23:16.805Z,16.00
2022-10-30T20:25:44.777Z,16.00
2022-10-30T20:28:17.416Z,15.90
2022-10-30T20:30:44.099Z,15.90
2022-10-30T20:33:12.991Z,15.90
2022-10-30T20:35:39.751Z,15.80
2022-10-30T20:38:06.589Z,15.70
2022-10-30T20:40:34.148Z,15.80
2022-10-30T20:43:02.992Z,15.80
2022-10-30T20:45:30.046Z,15.70
2022-10-30T20:47:56.967Z,15.60
2022-10-30T20:50:23.939Z,15.40
2022-10-30T20:52:50.645Z,15.40
2022-10-30T20:55:17.347Z,15.30
2022-10-30T20:57:44.088Z,15.30
2022-10-30T21:00:12.428Z,15.40
2022-10-30T21:02:39.211Z,15.40
2022-10-30T21:05:11.815Z,15.40
2022-10-30T21:07:44.151Z,15.40
2022-10-30T21:10:10.808Z,15.50
2022-10-30T21:12:37.440Z,15.40
2022-10-30T21:15:05.296Z,15.50
2022-10-30T21:17:32.526Z,15.50
2022-10-30T21:19:59.175Z,15.60
2022-10-30T21:22:25.858Z,15.60
2022-10-30T21:24:52.501Z,15.70
2022-10-30T21:27:19.111Z,15.60
2022-10-30T21:29:46.239Z,15.80
2022-10-30T21:32:13.787Z,15.80
2022-10-30T21:34:40.464Z,15.80
2022-10-30T21:37:07.120Z,15.70
2022-10-30T21:39:33.813Z,15.70
2022-10-30T21:42:00.438Z,15.70
2022-10-30T21:44:28.092Z,15.60
2022-10-30T21:46:54.786Z,15.60
2022-10-30T21:49:21.589Z,15.60
2022-10-30T21:51:50.457Z,15.50
2022-10-30T21:54:20.135Z,15.40
2022-10-30T21:56:46.774Z,15.40
2022-10-30T21:59:13.502Z,15.40
2022-10-30T22:01:41.280Z,15.30
2022-10-30T22:04:10.328Z,15.40
2022-10-30T22:06:42.340Z,15.40
2022-10-30T22:09:09.933Z,15.60
2022-10-30T22:11:37.187Z,15.50
2022-10-30T22:14:05.248Z,15.70
2022-10-30T22:16:34.432Z,15.80
2022-10-30T22:19:01.710Z,15.90
2022-10-30T22:21:29.661Z,16.10
2022-10-30T22:23:58.384Z,16.10
2022-10-30T22:26:25.111Z,16.00
2022-10-30T22:28:54.016Z,15.80
2022-10-30T22:31:21.861Z,15.90
2022-10-30T22:33:49.072Z,16.00
2022-10-30T22:36:17.357Z,16.00
2022-10-30T22:38:45.179Z,15.90
2022-10-30T22:41:13.267Z,15.90
2022-10-30T22:43:41.358Z,15.80
2022-10-30T22:46:09.208Z,15.90
2022-10-30T22:48:36.122Z,15.80
2022-10-30T22:51:05.295Z,15.80
2022-10-30T22:53:33.161Z,15.90
2022-10-30T22:56:00.727Z,15.90
2022-10-30T22:58:29.455Z,15.80
2022-10-30T23:01:13.283Z,15.60
2022-10-30T23:03:40.306Z,15.60
2022-10-30T23:06:07.277Z,15.60
2022-10-30T23:08:34.330Z,15.60
2022-10-30T23:11:01.739Z,15.60
2022-10-30T23:13:28.857Z,15.50
2022-10-30T23:16:01.438Z,15.50
2022-10-30T23:18:28.624Z,15.50
2022-10-30T23:21:00.902Z,15.40
2022-10-30T23:23:27.874Z,15.30
2022-10-30T23:25:54.624Z,15.30
2022-10-30T23:28:21.786Z,15.20
2022-10-30T23:30:48.436Z,15.10
2022-10-30T23:33:16.079Z,15.20
2022-10-30T23:35:42.750Z,15.40
2022-10-30T23:38:09.374Z,15.40
2022-10-30T23:40:36.040Z,15.30
2022-10-30T23:43:03.166Z,15.30
2022-10-30T23:45:31.866Z,15.30
2022-10-30T23:47:58.839Z,15.20
2022-10-30T23:50:25.663Z,15.20
2022-10-30T23:52:52.276Z,15.20
2022-10-30T23:55:18.948Z,15.10
2022-10-30T23:57:47.933Z,15.20
